sensor_id;sensor_type;location;lat;lon;timestamp;temperature;humidity
52187;DHT22;38161;53.020;6.598;2022-08-14T00:02:03;20.40;99.90
52187;DHT22;38161;53.020;6.598;2022-08-14T00:04:34;20.40;99.90
52187;DHT22;38161;53.020;6.598;2022-08-14T00:07:00;20.30;99.90
52187;DHT22;38161;53.020;6.598;2022-08-14T00:09:26;20.40;99.90
52187;DHT22;38161;53.020;6.598;2022-08-14T00:11:52;20.30;99.90
52187;DHT22;38161;53.020;6.598;2022-08-14T00:14:18;20.30;99.90
52187;DHT22;38161;53.020;6.598;2022-08-14T00:16:44;20.30;99.90
52187;DHT22;38161;53.020;6.598;2022-08-14T00:19:10;20.30;99.90
52187;DHT22;38161;53.020;6.598;2022-08-14T00:21:36;20.20;99.90
52187;DHT22;38161;53.020;6.598;2022-08-14T00:24:03;20.20;99.90
52187;DHT22;38161;53.020;6.598;2022-08-14T00:26:29;20.20;99.90
52187;DHT22;38161;53.020;6.598;2022-08-14T00:28:54;20.20;99.90
52187;DHT22;38161;53.020;6.598;2022-08-14T00:31:21;20.10;99.90
52187;DHT22;38161;53.020;6.598;2022-08-14T00:33:47;20.10;99.90
52187;DHT22;38161;53.020;6.598;2022-08-14T00:36:13;20.10;99.90
52187;DHT22;38161;53.020;6.598;2022-08-14T00:38:39;20.00;99.90
52187;DHT22;38161;53.020;6.598;2022-08-14T00:41:06;20.00;99.90
52187;DHT22;38161;53.020;6.598;2022-08-14T00:43:34;20.00;99.90
52187;DHT22;38161;53.020;6.598;2022-08-14T00:46:05;19.90;99.90
52187;DHT22;38161;53.020;6.598;2022-08-14T00:48:32;19.90;99.90
52187;DHT22;38161;53.020;6.598;2022-08-14T00:50:57;19.80;99.90
52187;DHT22;38161;53.020;6.598;2022-08-14T00:53:24;19.70;99.90
52187;DHT22;38161;53.020;6.598;2022-08-14T00:55:51;19.70;99.90
52187;DHT22;38161;53.020;6.598;2022-08-14T00:58:20;19.70;99.90
52187;DHT22;38161;53.020;6.598;2022-08-14T01:00:56;19.60;99.90
52187;DHT22;38161;53.020;6.598;2022-08-14T01:03:21;19.60;99.90
52187;DHT22;38161;53.020;6.598;2022-08-14T01:05:49;19.50;99.90
52187;DHT22;38161;53.020;6.598;2022-08-14T01:08:22;19.50;99.90
52187;DHT22;38161;53.020;6.598;2022-08-14T01:10:48;19.50;99.90
52187;DHT22;38161;53.020;6.598;2022-08-14T01:13:19;19.40;99.90
52187;DHT22;38161;53.020;6.598;2022-08-14T01:15:47;19.40;99.90
52187;DHT22;38161;53.020;6.598;2022-08-14T01:18:13;19.40;99.90
52187;DHT22;38161;53.020;6.598;2022-08-14T01:20:59;19.30;99.90
52187;DHT22;38161;53.020;6.598;2022-08-14T01:23:29;19.30;99.90
52187;DHT22;38161;53.020;6.598;2022-08-14T01:25:56;19.30;99.90
52187;DHT22;38161;53.020;6.598;2022-08-14T01:28:23;19.30;99.90
52187;DHT22;38161;53.020;6.598;2022-08-14T01:30:51;19.20;99.90
52187;DHT22;38161;53.020;6.598;2022-08-14T01:33:22;19.20;99.90
52187;DHT22;38161;53.020;6.598;2022-08-14T01:35:54;19.20;99.90
52187;DHT22;38161;53.020;6.598;2022-08-14T01:38:23;19.20;99.90
52187;DHT22;38161;53.020;6.598;2022-08-14T01:40:49;19.10;99.90
52187;DHT22;38161;53.020;6.598;2022-08-14T01:43:15;19.10;99.90
52187;DHT22;38161;53.020;6.598;2022-08-14T01:45:45;19.10;99.90
52187;DHT22;38161;53.020;6.598;2022-08-14T01:48:17;19.20;99.90
52187;DHT22;38161;53.020;6.598;2022-08-14T01:50:43;19.10;99.90
52187;DHT22;38161;53.020;6.598;2022-08-14T01:53:09;19.10;99.90
52187;DHT22;38161;53.020;6.598;2022-08-14T01:55:35;19.10;99.90
52187;DHT22;38161;53.020;6.598;2022-08-14T01:58:03;19.10;99.90
52187;DHT22;38161;53.020;6.598;2022-08-14T02:00:29;19.10;99.90
52187;DHT22;38161;53.020;6.598;2022-08-14T02:02:55;19.00;99.90
52187;DHT22;38161;53.020;6.598;2022-08-14T02:05:24;19.00;99.90
52187;DHT22;38161;53.020;6.598;2022-08-14T02:07:54;19.10;99.90
52187;DHT22;38161;53.020;6.598;2022-08-14T02:10:21;19.00;99.90
52187;DHT22;38161;53.020;6.598;2022-08-14T02:12:47;19.00;99.90
52187;DHT22;38161;53.020;6.598;2022-08-14T02:15:14;19.00;99.90
52187;DHT22;38161;53.020;6.598;2022-08-14T02:17:47;19.00;99.90
52187;DHT22;38161;53.020;6.598;2022-08-14T02:20:13;19.00;99.90
52187;DHT22;38161;53.020;6.598;2022-08-14T02:22:39;19.00;99.90
52187;DHT22;38161;53.020;6.598;2022-08-14T02:25:05;19.00;99.90
52187;DHT22;38161;53.020;6.598;2022-08-14T02:27:31;19.00;99.90
52187;DHT22;38161;53.020;6.598;2022-08-14T02:29:57;18.90;99.90
52187;DHT22;38161;53.020;6.598;2022-08-14T02:32:22;18.90;99.90
52187;DHT22;38161;53.020;6.598;2022-08-14T02:34:48;18.90;99.90
52187;DHT22;38161;53.020;6.598;2022-08-14T02:37:14;18.90;99.90
52187;DHT22;38161;53.020;6.598;2022-08-14T02:39:45;18.90;99.90
52187;DHT22;38161;53.020;6.598;2022-08-14T02:42:15;18.80;99.90
52187;DHT22;38161;53.020;6.598;2022-08-14T02:44:42;18.80;99.90
52187;DHT22;38161;53.020;6.598;2022-08-14T02:47:09;18.80;99.90
52187;DHT22;38161;53.020;6.598;2022-08-14T02:49:36;18.70;99.90
52187;DHT22;38161;53.020;6.598;2022-08-14T02:52:04;18.80;99.90
52187;DHT22;38161;53.020;6.598;2022-08-14T02:54:32;18.80;99.90
52187;DHT22;38161;53.020;6.598;2022-08-14T02:57:00;18.80;99.90
52187;DHT22;38161;53.020;6.598;2022-08-14T02:59:31;18.70;99.90
52187;DHT22;38161;53.020;6.598;2022-08-14T03:01:58;18.70;99.90
52187;DHT22;38161;53.020;6.598;2022-08-14T03:04:24;18.70;99.90
52187;DHT22;38161;53.020;6.598;2022-08-14T03:06:54;18.60;99.90
52187;DHT22;38161;53.020;6.598;2022-08-14T03:09:20;18.60;99.90
52187;DHT22;38161;53.020;6.598;2022-08-14T03:11:46;18.60;99.90
52187;DHT22;38161;53.020;6.598;2022-08-14T03:14:12;18.60;99.90
52187;DHT22;38161;53.020;6.598;2022-08-14T03:16:38;18.50;99.90
52187;DHT22;38161;53.020;6.598;2022-08-14T03:19:06;18.50;99.90
52187;DHT22;38161;53.020;6.598;2022-08-14T03:21:33;18.50;99.90
52187;DHT22;38161;53.020;6.598;2022-08-14T03:23:59;18.50;99.90
52187;DHT22;38161;53.020;6.598;2022-08-14T03:26:39;18.50;99.90
52187;DHT22;38161;53.020;6.598;2022-08-14T03:29:06;18.50;99.90
52187;DHT22;38161;53.020;6.598;2022-08-14T03:31:32;18.50;99.90
52187;DHT22;38161;53.020;6.598;2022-08-14T03:33:58;18.50;99.90
52187;DHT22;38161;53.020;6.598;2022-08-14T03:36:24;18.50;99.90
52187;DHT22;38161;53.020;6.598;2022-08-14T03:38:50;18.40;99.90
52187;DHT22;38161;53.020;6.598;2022-08-14T03:41:23;18.50;99.90
52187;DHT22;38161;53.020;6.598;2022-08-14T03:43:57;18.40;99.90
52187;DHT22;38161;53.020;6.598;2022-08-14T03:46:25;18.40;99.90
52187;DHT22;38161;53.020;6.598;2022-08-14T03:48:53;18.40;99.90
52187;DHT22;38161;53.020;6.598;2022-08-14T03:51:20;18.30;99.90
52187;DHT22;38161;53.020;6.598;2022-08-14T03:53:47;18.30;99.90
52187;DHT22;38161;53.020;6.598;2022-08-14T03:56:15;18.30;99.90
52187;DHT22;38161;53.020;6.598;2022-08-14T03:58:44;18.20;99.90
52187;DHT22;38161;53.020;6.598;2022-08-14T04:01:12;18.20;99.90
52187;DHT22;38161;53.020;6.598;2022-08-14T04:03:38;18.20;99.90
52187;DHT22;38161;53.020;6.598;2022-08-14T04:06:04;18.20;99.90
52187;DHT22;38161;53.020;6.598;2022-08-14T04:08:37;18.20;99.90
52187;DHT22;38161;53.020;6.598;2022-08-14T04:11:03;18.20;99.90
52187;DHT22;38161;53.020;6.598;2022-08-14T04:13:31;18.20;99.90
52187;DHT22;38161;53.020;6.598;2022-08-14T04:15:56;18.10;99.90
52187;DHT22;38161;53.020;6.598;2022-08-14T04:18:22;18.10;99.90
52187;DHT22;38161;53.020;6.598;2022-08-14T04:20:48;18.10;99.90
52187;DHT22;38161;53.020;6.598;2022-08-14T04:23:14;18.10;99.90
52187;DHT22;38161;53.020;6.598;2022-08-14T04:25:41;18.10;99.90
52187;DHT22;38161;53.020;6.598;2022-08-14T04:28:09;18.10;99.90
52187;DHT22;38161;53.020;6.598;2022-08-14T04:30:36;18.10;99.90
52187;DHT22;38161;53.020;6.598;2022-08-14T04:33:05;18.10;99.90
52187;DHT22;38161;53.020;6.598;2022-08-14T04:35:36;18.00;99.90
52187;DHT22;38161;53.020;6.598;2022-08-14T04:38:09;18.10;99.90
52187;DHT22;38161;53.020;6.598;2022-08-14T04:40:55;18.10;99.90
52187;DHT22;38161;53.020;6.598;2022-08-14T04:43:40;18.10;99.90
52187;DHT22;38161;53.020;6.598;2022-08-14T04:46:07;18.10;99.90
52187;DHT22;38161;53.020;6.598;2022-08-14T04:48:33;18.10;99.90
52187;DHT22;38161;53.020;6.598;2022-08-14T04:50:59;18.10;99.90
52187;DHT22;38161;53.020;6.598;2022-08-14T04:53:27;18.10;99.90
52187;DHT22;38161;53.020;6.598;2022-08-14T04:55:55;18.10;99.90
52187;DHT22;38161;53.020;6.598;2022-08-14T04:58:23;18.10;99.90
52187;DHT22;38161;53.020;6.598;2022-08-14T05:00:50;18.10;99.90
52187;DHT22;38161;53.020;6.598;2022-08-14T05:03:28;18.10;99.90
52187;DHT22;38161;53.020;6.598;2022-08-14T05:05:59;18.10;99.90
52187;DHT22;38161;53.020;6.598;2022-08-14T05:08:25;18.20;99.90
52187;DHT22;38161;53.020;6.598;2022-08-14T05:10:54;18.20;99.90
52187;DHT22;38161;53.020;6.598;2022-08-14T05:13:21;18.20;99.90
52187;DHT22;38161;53.020;6.598;2022-08-14T05:15:48;18.20;99.90
52187;DHT22;38161;53.020;6.598;2022-08-14T05:18:19;18.30;99.90
52187;DHT22;38161;53.020;6.598;2022-08-14T05:20:49;18.30;99.90
52187;DHT22;38161;53.020;6.598;2022-08-14T05:23:17;18.30;99.90
52187;DHT22;38161;53.020;6.598;2022-08-14T05:25:44;18.40;99.90
52187;DHT22;38161;53.020;6.598;2022-08-14T05:28:17;18.40;99.90
52187;DHT22;38161;53.020;6.598;2022-08-14T05:30:45;18.50;99.90
52187;DHT22;38161;53.020;6.598;2022-08-14T05:33:14;18.50;99.90
52187;DHT22;38161;53.020;6.598;2022-08-14T05:35:41;18.50;99.90
52187;DHT22;38161;53.020;6.598;2022-08-14T05:38:13;18.60;99.90
52187;DHT22;38161;53.020;6.598;2022-08-14T05:40:41;18.70;99.90
52187;DHT22;38161;53.020;6.598;2022-08-14T05:43:07;18.70;99.90
52187;DHT22;38161;53.020;6.598;2022-08-14T05:45:32;18.80;99.90
52187;DHT22;38161;53.020;6.598;2022-08-14T05:48:00;18.90;99.90
52187;DHT22;38161;53.020;6.598;2022-08-14T05:50:26;18.90;99.90
52187;DHT22;38161;53.020;6.598;2022-08-14T05:52:53;19.00;99.90
52187;DHT22;38161;53.020;6.598;2022-08-14T05:55:20;19.10;99.90
52187;DHT22;38161;53.020;6.598;2022-08-14T05:57:47;19.20;99.90
52187;DHT22;38161;53.020;6.598;2022-08-14T06:00:14;19.30;99.90
52187;DHT22;38161;53.020;6.598;2022-08-14T06:02:40;19.30;99.90
52187;DHT22;38161;53.020;6.598;2022-08-14T06:05:05;19.50;99.90
52187;DHT22;38161;53.020;6.598;2022-08-14T06:07:35;19.50;99.90
52187;DHT22;38161;53.020;6.598;2022-08-14T06:10:01;19.60;99.90
52187;DHT22;38161;53.020;6.598;2022-08-14T06:12:27;19.70;99.90
52187;DHT22;38161;53.020;6.598;2022-08-14T06:14:53;19.80;99.90
52187;DHT22;38161;53.020;6.598;2022-08-14T06:17:19;19.90;99.90
52187;DHT22;38161;53.020;6.598;2022-08-14T06:19:44;20.00;99.90
52187;DHT22;38161;53.020;6.598;2022-08-14T06:22:10;20.10;99.90
52187;DHT22;38161;53.020;6.598;2022-08-14T06:24:36;20.20;99.90
52187;DHT22;38161;53.020;6.598;2022-08-14T06:27:03;20.20;99.90
52187;DHT22;38161;53.020;6.598;2022-08-14T06:29:29;20.30;99.90
52187;DHT22;38161;53.020;6.598;2022-08-14T06:31:54;20.40;99.90
52187;DHT22;38161;53.020;6.598;2022-08-14T06:34:21;20.50;99.90
52187;DHT22;38161;53.020;6.598;2022-08-14T06:36:47;20.60;99.90
52187;DHT22;38161;53.020;6.598;2022-08-14T06:39:13;20.70;99.90
52187;DHT22;38161;53.020;6.598;2022-08-14T06:41:39;20.80;99.90
52187;DHT22;38161;53.020;6.598;2022-08-14T06:44:09;20.90;99.90
52187;DHT22;38161;53.020;6.598;2022-08-14T06:46:35;21.10;99.90
52187;DHT22;38161;53.020;6.598;2022-08-14T06:49:01;21.30;99.90
52187;DHT22;38161;53.020;6.598;2022-08-14T06:51:27;21.40;99.90
52187;DHT22;38161;53.020;6.598;2022-08-14T06:53:53;21.50;99.90
52187;DHT22;38161;53.020;6.598;2022-08-14T06:56:19;21.60;99.90
52187;DHT22;38161;53.020;6.598;2022-08-14T06:58:45;21.70;99.90
52187;DHT22;38161;53.020;6.598;2022-08-14T07:01:11;21.90;99.90
52187;DHT22;38161;53.020;6.598;2022-08-14T07:03:56;22.00;99.90
52187;DHT22;38161;53.020;6.598;2022-08-14T07:06:40;22.10;99.90
52187;DHT22;38161;53.020;6.598;2022-08-14T07:09:09;22.30;99.90
52187;DHT22;38161;53.020;6.598;2022-08-14T07:11:35;22.40;99.90
52187;DHT22;38161;53.020;6.598;2022-08-14T07:14:00;22.50;99.90
52187;DHT22;38161;53.020;6.598;2022-08-14T07:16:26;22.70;99.90
52187;DHT22;38161;53.020;6.598;2022-08-14T07:18:52;22.80;99.90
52187;DHT22;38161;53.020;6.598;2022-08-14T07:21:18;22.90;99.90
52187;DHT22;38161;53.020;6.598;2022-08-14T07:23:44;23.00;99.90
52187;DHT22;38161;53.020;6.598;2022-08-14T07:26:10;23.20;99.90
52187;DHT22;38161;53.020;6.598;2022-08-14T07:28:38;23.20;99.90
52187;DHT22;38161;53.020;6.598;2022-08-14T07:31:07;23.30;99.90
52187;DHT22;38161;53.020;6.598;2022-08-14T07:33:42;23.40;99.90
52187;DHT22;38161;53.020;6.598;2022-08-14T07:36:09;23.50;99.90
52187;DHT22;38161;53.020;6.598;2022-08-14T07:38:36;23.60;99.90
52187;DHT22;38161;53.020;6.598;2022-08-14T07:41:03;23.70;99.90
52187;DHT22;38161;53.020;6.598;2022-08-14T07:43:29;23.80;99.90
52187;DHT22;38161;53.020;6.598;2022-08-14T07:45:55;23.80;99.90
52187;DHT22;38161;53.020;6.598;2022-08-14T07:48:21;23.90;99.90
52187;DHT22;38161;53.020;6.598;2022-08-14T07:50:47;24.00;99.90
52187;DHT22;38161;53.020;6.598;2022-08-14T07:53:16;24.10;99.90
52187;DHT22;38161;53.020;6.598;2022-08-14T07:55:42;24.30;99.90
52187;DHT22;38161;53.020;6.598;2022-08-14T07:58:10;24.30;99.90
52187;DHT22;38161;53.020;6.598;2022-08-14T08:00:35;24.50;99.90
52187;DHT22;38161;53.020;6.598;2022-08-14T08:03:01;24.50;99.90
52187;DHT22;38161;53.020;6.598;2022-08-14T08:05:28;24.70;99.90
52187;DHT22;38161;53.020;6.598;2022-08-14T08:07:54;24.80;99.90
52187;DHT22;38161;53.020;6.598;2022-08-14T08:10:25;24.90;99.90
52187;DHT22;38161;53.020;6.598;2022-08-14T08:13:15;24.90;99.90
52187;DHT22;38161;53.020;6.598;2022-08-14T08:15:49;25.10;99.90
52187;DHT22;38161;53.020;6.598;2022-08-14T08:18:16;25.10;99.90
52187;DHT22;38161;53.020;6.598;2022-08-14T08:20:44;25.20;99.90
52187;DHT22;38161;53.020;6.598;2022-08-14T08:23:15;25.30;99.90
52187;DHT22;38161;53.020;6.598;2022-08-14T08:25:44;25.40;99.90
52187;DHT22;38161;53.020;6.598;2022-08-14T08:28:13;25.50;99.90
52187;DHT22;38161;53.020;6.598;2022-08-14T08:30:42;25.60;99.90
52187;DHT22;38161;53.020;6.598;2022-08-14T08:33:09;25.70;99.90
52187;DHT22;38161;53.020;6.598;2022-08-14T08:35:36;25.80;99.90
52187;DHT22;38161;53.020;6.598;2022-08-14T08:38:08;25.80;99.90
52187;DHT22;38161;53.020;6.598;2022-08-14T08:40:39;25.90;99.90
52187;DHT22;38161;53.020;6.598;2022-08-14T08:43:17;26.00;99.90
52187;DHT22;38161;53.020;6.598;2022-08-14T08:46:08;26.10;99.90
52187;DHT22;38161;53.020;6.598;2022-08-14T08:48:46;26.20;99.90
52187;DHT22;38161;53.020;6.598;2022-08-14T08:54:02;26.40;99.90
52187;DHT22;38161;53.020;6.598;2022-08-14T08:59:16;26.60;99.90
52187;DHT22;38161;53.020;6.598;2022-08-14T09:02:05;26.70;99.90
52187;DHT22;38161;53.020;6.598;2022-08-14T09:07:06;26.90;99.90
52187;DHT22;38161;53.020;6.598;2022-08-14T09:09:33;27.00;99.90
52187;DHT22;38161;53.020;6.598;2022-08-14T09:12:00;27.10;99.90
52187;DHT22;38161;53.020;6.598;2022-08-14T09:14:28;27.10;99.90
52187;DHT22;38161;53.020;6.598;2022-08-14T09:16:56;27.20;99.90
52187;DHT22;38161;53.020;6.598;2022-08-14T09:19:22;27.30;99.90
52187;DHT22;38161;53.020;6.598;2022-08-14T09:21:48;27.40;99.90
52187;DHT22;38161;53.020;6.598;2022-08-14T09:24:14;27.50;99.90
52187;DHT22;38161;53.020;6.598;2022-08-14T09:26:41;27.50;99.90
52187;DHT22;38161;53.020;6.598;2022-08-14T09:29:08;27.60;99.90
52187;DHT22;38161;53.020;6.598;2022-08-14T09:31:36;27.70;99.90
52187;DHT22;38161;53.020;6.598;2022-08-14T09:37:31;27.80;99.90
52187;DHT22;38161;53.020;6.598;2022-08-14T09:40:07;27.90;99.90
52187;DHT22;38161;53.020;6.598;2022-08-14T09:45:16;28.00;99.90
52187;DHT22;38161;53.020;6.598;2022-08-14T09:47:52;28.10;99.90
52187;DHT22;38161;53.020;6.598;2022-08-14T09:53:16;28.30;99.90
52187;DHT22;38161;53.020;6.598;2022-08-14T09:55:42;28.30;99.90
52187;DHT22;38161;53.020;6.598;2022-08-14T10:00:50;28.50;99.90
52187;DHT22;38161;53.020;6.598;2022-08-14T10:03:30;28.60;99.90
52187;DHT22;38161;53.020;6.598;2022-08-14T10:06:11;28.70;99.90
52187;DHT22;38161;53.020;6.598;2022-08-14T10:11:25;28.80;99.90
52187;DHT22;38161;53.020;6.598;2022-08-14T10:13:55;28.90;99.90
52187;DHT22;38161;53.020;6.598;2022-08-14T10:16:23;29.00;99.90
52187;DHT22;38161;53.020;6.598;2022-08-14T10:19:08;29.00;99.90
52187;DHT22;38161;53.020;6.598;2022-08-14T10:21:37;29.00;99.90
52187;DHT22;38161;53.020;6.598;2022-08-14T10:24:03;29.00;99.90
52187;DHT22;38161;53.020;6.598;2022-08-14T10:26:30;29.10;99.90
52187;DHT22;38161;53.020;6.598;2022-08-14T10:29:02;29.10;99.90
52187;DHT22;38161;53.020;6.598;2022-08-14T10:31:29;29.20;99.90
52187;DHT22;38161;53.020;6.598;2022-08-14T10:34:10;29.30;99.90
52187;DHT22;38161;53.020;6.598;2022-08-14T10:36:38;29.40;99.90
52187;DHT22;38161;53.020;6.598;2022-08-14T10:39:22;29.50;99.90
52187;DHT22;38161;53.020;6.598;2022-08-14T10:42:02;29.50;99.90
52187;DHT22;38161;53.020;6.598;2022-08-14T10:44:34;29.60;99.90
52187;DHT22;38161;53.020;6.598;2022-08-14T10:47:05;29.70;99.90
52187;DHT22;38161;53.020;6.598;2022-08-14T10:49:34;29.80;99.90
52187;DHT22;38161;53.020;6.598;2022-08-14T10:52:18;29.80;99.40
52187;DHT22;38161;53.020;6.598;2022-08-14T10:54:45;29.80;99.30
52187;DHT22;38161;53.020;6.598;2022-08-14T10:57:25;29.90;99.40
52187;DHT22;38161;53.020;6.598;2022-08-14T10:59:57;30.00;99.40
52187;DHT22;38161;53.020;6.598;2022-08-14T11:05:09;30.00;98.40
52187;DHT22;38161;53.020;6.598;2022-08-14T11:07:55;30.10;98.20
52187;DHT22;38161;53.020;6.598;2022-08-14T11:10:24;30.10;97.70
52187;DHT22;38161;53.020;6.598;2022-08-14T11:12:54;30.10;97.90
52187;DHT22;38161;53.020;6.598;2022-08-14T11:15:24;30.20;97.80
52187;DHT22;38161;53.020;6.598;2022-08-14T11:17:52;30.20;97.40
52187;DHT22;38161;53.020;6.598;2022-08-14T11:20:23;30.20;97.30
52187;DHT22;38161;53.020;6.598;2022-08-14T11:22:52;30.20;96.90
52187;DHT22;38161;53.020;6.598;2022-08-14T11:25:20;30.30;96.80
52187;DHT22;38161;53.020;6.598;2022-08-14T11:27:49;30.30;97.00
52187;DHT22;38161;53.020;6.598;2022-08-14T11:30:17;30.40;96.80
52187;DHT22;38161;53.020;6.598;2022-08-14T11:32:45;30.40;96.30
52187;DHT22;38161;53.020;6.598;2022-08-14T11:35:25;30.50;96.40
52187;DHT22;38161;53.020;6.598;2022-08-14T11:37:59;30.50;95.50
52187;DHT22;38161;53.020;6.598;2022-08-14T11:40:27;30.50;96.00
52187;DHT22;38161;53.020;6.598;2022-08-14T11:42:55;30.60;95.70
52187;DHT22;38161;53.020;6.598;2022-08-14T11:45:25;30.60;95.70
52187;DHT22;38161;53.020;6.598;2022-08-14T11:47:52;30.70;95.50
52187;DHT22;38161;53.020;6.598;2022-08-14T11:50:31;30.80;95.50
52187;DHT22;38161;53.020;6.598;2022-08-14T11:52:58;30.80;94.60
52187;DHT22;38161;53.020;6.598;2022-08-14T11:55:33;30.80;95.60
52187;DHT22;38161;53.020;6.598;2022-08-14T11:58:10;30.80;95.50
52187;DHT22;38161;53.020;6.598;2022-08-14T12:00:47;30.80;95.10
52187;DHT22;38161;53.020;6.598;2022-08-14T12:03:13;30.80;94.70
52187;DHT22;38161;53.020;6.598;2022-08-14T12:05:39;30.90;95.30
52187;DHT22;38161;53.020;6.598;2022-08-14T12:08:08;30.90;94.80
52187;DHT22;38161;53.020;6.598;2022-08-14T12:10:40;31.00;94.20
52187;DHT22;38161;53.020;6.598;2022-08-14T12:13:28;30.90;94.10
52187;DHT22;38161;53.020;6.598;2022-08-14T12:16:01;30.80;94.20
52187;DHT22;38161;53.020;6.598;2022-08-14T12:18:36;30.80;94.60
52187;DHT22;38161;53.020;6.598;2022-08-14T12:23:38;31.00;94.10
52187;DHT22;38161;53.020;6.598;2022-08-14T12:26:12;30.90;94.00
52187;DHT22;38161;53.020;6.598;2022-08-14T12:28:38;30.70;93.80
52187;DHT22;38161;53.020;6.598;2022-08-14T12:31:12;30.60;93.80
52187;DHT22;38161;53.020;6.598;2022-08-14T12:33:39;30.50;93.10
52187;DHT22;38161;53.020;6.598;2022-08-14T12:36:18;30.30;93.50
52187;DHT22;38161;53.020;6.598;2022-08-14T12:38:47;30.10;92.80
52187;DHT22;38161;53.020;6.598;2022-08-14T12:41:22;29.90;93.90
52187;DHT22;38161;53.020;6.598;2022-08-14T12:49:00;29.60;93.80
52187;DHT22;38161;53.020;6.598;2022-08-14T12:51:29;29.50;94.00
52187;DHT22;38161;53.020;6.598;2022-08-14T12:53:56;29.50;94.90
52187;DHT22;38161;53.020;6.598;2022-08-14T12:56:23;29.50;95.00
52187;DHT22;38161;53.020;6.598;2022-08-14T12:58:56;29.40;95.10
52187;DHT22;38161;53.020;6.598;2022-08-14T13:01:27;29.50;95.40
52187;DHT22;38161;53.020;6.598;2022-08-14T13:04:16;29.60;95.80
52187;DHT22;38161;53.020;6.598;2022-08-14T13:06:44;29.80;94.90
52187;DHT22;38161;53.020;6.598;2022-08-14T13:09:13;29.80;94.60
52187;DHT22;38161;53.020;6.598;2022-08-14T13:11:43;29.90;94.70
52187;DHT22;38161;53.020;6.598;2022-08-14T13:14:16;30.00;94.50
52187;DHT22;38161;53.020;6.598;2022-08-14T13:16:43;30.00;94.10
52187;DHT22;38161;53.020;6.598;2022-08-14T13:19:14;30.10;94.60
52187;DHT22;38161;53.020;6.598;2022-08-14T13:21:46;30.30;93.40
52187;DHT22;38161;53.020;6.598;2022-08-14T13:24:15;30.40;93.10
52187;DHT22;38161;53.020;6.598;2022-08-14T13:26:45;30.50;93.00
52187;DHT22;38161;53.020;6.598;2022-08-14T13:29:13;30.40;93.10
52187;DHT22;38161;53.020;6.598;2022-08-14T13:31:43;30.40;93.00
52187;DHT22;38161;53.020;6.598;2022-08-14T13:34:11;30.30;92.90
52187;DHT22;38161;53.020;6.598;2022-08-14T13:36:38;30.30;92.90
52187;DHT22;38161;53.020;6.598;2022-08-14T13:39:05;30.20;92.90
52187;DHT22;38161;53.020;6.598;2022-08-14T13:41:32;30.30;92.80
52187;DHT22;38161;53.020;6.598;2022-08-14T13:43:58;30.30;92.50
52187;DHT22;38161;53.020;6.598;2022-08-14T13:46:24;30.30;92.30
52187;DHT22;38161;53.020;6.598;2022-08-14T13:48:50;30.30;92.20
52187;DHT22;38161;53.020;6.598;2022-08-14T13:51:18;30.40;92.30
52187;DHT22;38161;53.020;6.598;2022-08-14T13:53:48;30.40;92.40
52187;DHT22;38161;53.020;6.598;2022-08-14T13:56:15;30.40;92.40
52187;DHT22;38161;53.020;6.598;2022-08-14T13:58:44;30.40;92.30
52187;DHT22;38161;53.020;6.598;2022-08-14T14:01:14;30.30;92.30
52187;DHT22;38161;53.020;6.598;2022-08-14T14:03:43;30.20;92.30
52187;DHT22;38161;53.020;6.598;2022-08-14T14:06:13;30.20;92.40
52187;DHT22;38161;53.020;6.598;2022-08-14T14:08:46;30.00;91.80
52187;DHT22;38161;53.020;6.598;2022-08-14T14:11:14;30.00;92.00
52187;DHT22;38161;53.020;6.598;2022-08-14T14:13:40;29.90;92.50
52187;DHT22;38161;53.020;6.598;2022-08-14T14:16:08;29.80;92.50
52187;DHT22;38161;53.020;6.598;2022-08-14T14:18:34;29.80;92.60
52187;DHT22;38161;53.020;6.598;2022-08-14T14:21:03;29.60;92.90
52187;DHT22;38161;53.020;6.598;2022-08-14T14:23:33;29.50;92.60
52187;DHT22;38161;53.020;6.598;2022-08-14T14:25:59;29.40;92.80
52187;DHT22;38161;53.020;6.598;2022-08-14T14:28:29;29.30;93.80
52187;DHT22;38161;53.020;6.598;2022-08-14T14:30:57;29.30;92.90
52187;DHT22;38161;53.020;6.598;2022-08-14T14:33:25;29.20;93.10
52187;DHT22;38161;53.020;6.598;2022-08-14T14:35:51;29.20;93.30
52187;DHT22;38161;53.020;6.598;2022-08-14T14:38:17;29.20;93.30
52187;DHT22;38161;53.020;6.598;2022-08-14T14:40:44;29.30;93.40
52187;DHT22;38161;53.020;6.598;2022-08-14T14:43:14;29.40;93.70
52187;DHT22;38161;53.020;6.598;2022-08-14T14:45:42;29.50;93.40
52187;DHT22;38161;53.020;6.598;2022-08-14T14:48:11;29.60;93.60
52187;DHT22;38161;53.020;6.598;2022-08-14T14:50:37;29.50;93.50
52187;DHT22;38161;53.020;6.598;2022-08-14T14:53:07;29.50;93.60
52187;DHT22;38161;53.020;6.598;2022-08-14T14:55:35;29.40;93.30
52187;DHT22;38161;53.020;6.598;2022-08-14T14:58:02;29.30;92.90
52187;DHT22;38161;53.020;6.598;2022-08-14T15:00:28;29.30;93.20
52187;DHT22;38161;53.020;6.598;2022-08-14T15:02:54;29.20;93.80
52187;DHT22;38161;53.020;6.598;2022-08-14T15:05:22;29.10;94.10
52187;DHT22;38161;53.020;6.598;2022-08-14T15:07:50;29.00;94.10
52187;DHT22;38161;53.020;6.598;2022-08-14T15:10:18;28.90;93.40
52187;DHT22;38161;53.020;6.598;2022-08-14T15:12:44;28.90;93.80
52187;DHT22;38161;53.020;6.598;2022-08-14T15:15:11;28.90;94.10
52187;DHT22;38161;53.020;6.598;2022-08-14T15:17:38;29.00;94.60
52187;DHT22;38161;53.020;6.598;2022-08-14T15:20:09;29.00;94.00
52187;DHT22;38161;53.020;6.598;2022-08-14T15:22:39;29.20;93.40
52187;DHT22;38161;53.020;6.598;2022-08-14T15:25:07;29.20;93.00
52187;DHT22;38161;53.020;6.598;2022-08-14T15:27:35;29.30;93.50
52187;DHT22;38161;53.020;6.598;2022-08-14T15:30:03;29.30;93.10
52187;DHT22;38161;53.020;6.598;2022-08-14T15:32:30;29.40;92.60
52187;DHT22;38161;53.020;6.598;2022-08-14T15:34:55;29.40;91.90
52187;DHT22;38161;53.020;6.598;2022-08-14T15:37:23;29.40;91.80
52187;DHT22;38161;53.020;6.598;2022-08-14T15:39:50;29.30;92.40
52187;DHT22;38161;53.020;6.598;2022-08-14T15:42:16;29.00;93.00
52187;DHT22;38161;53.020;6.598;2022-08-14T15:44:45;29.20;93.40
52187;DHT22;38161;53.020;6.598;2022-08-14T15:47:10;29.20;93.80
52187;DHT22;38161;53.020;6.598;2022-08-14T15:49:36;29.20;94.00
52187;DHT22;38161;53.020;6.598;2022-08-14T15:52:03;29.20;93.90
52187;DHT22;38161;53.020;6.598;2022-08-14T15:54:29;29.20;94.20
52187;DHT22;38161;53.020;6.598;2022-08-14T15:57:06;29.20;93.90
52187;DHT22;38161;53.020;6.598;2022-08-14T15:59:34;29.20;93.90
52187;DHT22;38161;53.020;6.598;2022-08-14T16:02:23;29.20;93.90
52187;DHT22;38161;53.020;6.598;2022-08-14T16:04:49;29.20;94.00
52187;DHT22;38161;53.020;6.598;2022-08-14T16:07:16;29.20;94.10
52187;DHT22;38161;53.020;6.598;2022-08-14T16:09:42;29.20;93.90
52187;DHT22;38161;53.020;6.598;2022-08-14T16:12:09;29.20;94.40
52187;DHT22;38161;53.020;6.598;2022-08-14T16:14:35;29.40;93.70